createdAt,value
2018-04-26T00:00:10.596Z,1004.74
2018-04-26T00:00:50.990Z,1004.76
2018-04-26T00:01:31.383Z,1004.75
2018-04-26T00:02:11.784Z,1004.84
2018-04-26T00:02:52.175Z,1004.76
2018-04-26T00:03:32.594Z,1004.82
2018-04-26T00:04:13.041Z,1004.82
2018-04-26T00:04:53.479Z,1004.73
2018-04-26T00:05:33.892Z,1004.78
2018-04-26T00:06:14.297Z,1004.79
2018-04-26T00:06:54.724Z,1004.76
2018-04-26T00:07:35.155Z,1004.79
2018-04-26T00:08:15.496Z,1004.76
2018-04-26T00:08:55.986Z,1004.77
2018-04-26T00:09:36.428Z,1004.79
2018-04-26T00:10:16.846Z,1004.73
2018-04-26T00:10:57.290Z,1004.76
2018-04-26T00:11:38.019Z,1004.66
2018-04-26T00:12:18.461Z,1004.71
2018-04-26T00:12:58.917Z,1004.69
2018-04-26T00:13:39.271Z,1004.62
2018-04-26T00:14:19.729Z,1004.68
2018-04-26T00:15:00.248Z,1004.68
2018-04-26T00:15:40.659Z,1004.67
2018-04-26T00:16:21.031Z,1004.67
2018-04-26T00:17:01.436Z,1004.67
2018-04-26T00:17:41.902Z,1004.69
2018-04-26T00:18:22.243Z,1004.71
2018-04-26T00:19:02.638Z,1004.69
2018-04-26T00:19:43.073Z,1004.68
2018-04-26T00:20:23.502Z,1004.66
2018-04-26T00:21:03.897Z,1004.73
2018-04-26T00:21:44.300Z,1004.66
2018-04-26T00:22:24.703Z,1004.61
2018-04-26T00:23:05.097Z,1004.67
2018-04-26T00:23:45.607Z,1004.72
2018-04-26T00:24:26.008Z,1004.71
2018-04-26T00:25:06.527Z,1004.68
2018-04-26T00:25:46.815Z,1004.72
2018-04-26T00:26:27.289Z,1004.73
2018-04-26T00:27:07.641Z,1004.7
2018-04-26T00:27:48.123Z,1004.71
2018-04-26T00:28:28.532Z,1004.72
2018-04-26T00:29:08.968Z,1004.69
2018-04-26T00:29:49.443Z,1004.69
2018-04-26T00:30:29.823Z,1004.64
2018-04-26T00:31:10.224Z,1004.64
2018-04-26T00:31:50.669Z,1004.68
2018-04-26T00:32:31.038Z,1004.69
2018-04-26T00:33:11.422Z,1004.72
2018-04-26T00:33:51.821Z,1004.73
2018-04-26T00:35:44.324Z,1004.67
2018-04-26T00:36:25.216Z,1004.65
2018-04-26T00:37:05.650Z,1004.65
2018-04-26T00:37:46.065Z,1004.67
2018-04-26T00:38:26.527Z,1004.65
2018-04-26T00:39:06.915Z,1004.64
2018-04-26T00:39:47.323Z,1004.66
2018-04-26T00:40:27.731Z,1004.63
2018-04-26T00:41:08.144Z,1004.7
2018-04-26T00:41:48.606Z,1004.7
2018-04-26T00:42:29.056Z,1004.71
2018-04-26T00:43:09.447Z,1004.71
2018-04-26T00:43:49.872Z,1004.7
2018-04-26T00:44:30.306Z,1004.72
2018-04-26T00:45:10.760Z,1004.7
2018-04-26T00:45:51.171Z,1004.69
2018-04-26T00:46:31.807Z,1004.68
2018-04-26T00:47:12.214Z,1004.66
2018-04-26T00:47:52.648Z,1004.68
2018-04-26T00:48:33.046Z,1004.72
2018-04-26T00:49:13.505Z,1004.71
2018-04-26T00:49:53.901Z,1004.72
2018-04-26T00:50:34.296Z,1004.76
2018-04-26T00:51:14.729Z,1004.72
2018-04-26T00:51:55.167Z,1004.7
2018-04-26T00:52:35.671Z,1004.69
2018-04-26T00:53:16.062Z,1004.68
2018-04-26T00:53:56.488Z,1004.62
2018-04-26T00:54:37.270Z,1004.65
2018-04-26T00:55:17.674Z,1004.67
2018-04-26T00:55:58.107Z,1004.63
2018-04-26T00:56:38.544Z,1004.61
2018-04-26T00:57:18.941Z,1004.65
2018-04-26T00:57:59.361Z,1004.63
2018-04-26T00:58:39.801Z,1004.65
2018-04-26T00:59:20.187Z,1004.61
2018-04-26T01:00:00.593Z,1004.6
2018-04-26T01:00:41.018Z,1004.59
2018-04-26T01:01:21.454Z,1004.64
2018-04-26T01:02:02.031Z,1004.46
2018-04-26T01:02:42.474Z,1004.52
2018-04-26T01:03:22.927Z,1004.64
2018-04-26T01:04:03.401Z,1004.56
2018-04-26T01:04:43.707Z,1004.51
2018-04-26T01:05:24.199Z,1004.58
2018-04-26T01:06:04.542Z,1004.53
2018-04-26T01:06:44.986Z,1004.62
2018-04-26T01:07:25.339Z,1004.63
2018-04-26T01:08:05.978Z,1004.61
2018-04-26T01:08:46.160Z,1004.59
2018-04-26T01:09:26.569Z,1004.58
2018-04-26T01:10:07.020Z,1004.63
2018-04-26T01:10:47.440Z,1004.52
2018-04-26T01:12:40.967Z,1004.61
2018-04-26T01:13:22.017Z,1004.59
2018-04-26T01:14:02.386Z,1004.64
2018-04-26T01:14:42.854Z,1004.52
2018-04-26T01:15:23.226Z,1004.61
2018-04-26T01:16:03.640Z,1004.55
2018-04-26T01:16:44.028Z,1004.58
2018-04-26T01:17:24.439Z,1004.59
2018-04-26T01:18:04.861Z,1004.5
2018-04-26T01:18:45.415Z,1004.5
2018-04-26T01:19:25.825Z,1004.51
2018-04-26T01:20:06.340Z,1004.55
2018-04-26T01:20:46.600Z,1004.6
2018-04-26T01:21:26.984Z,1004.56
2018-04-26T01:22:07.433Z,1004.54
2018-04-26T01:22:47.840Z,1004.59
2018-04-26T01:23:28.249Z,1004.55
2018-04-26T01:24:08.701Z,1004.56
2018-04-26T01:24:49.092Z,1004.54
2018-04-26T01:25:29.572Z,1004.58
2018-04-26T01:26:09.987Z,1004.54
2018-04-26T01:26:50.476Z,1004.55
2018-04-26T01:29:02.990Z,1004.57
2018-04-26T01:29:43.376Z,1004.55
2018-04-26T01:32:01.175Z,1004.56
2018-04-26T01:32:41.536Z,1004.56
2018-04-26T01:33:21.912Z,1004.55
2018-04-26T01:34:02.315Z,1004.58
2018-04-26T01:34:42.729Z,1004.59
2018-04-26T01:35:23.139Z,1004.6
2018-04-26T01:36:03.513Z,1004.57
2018-04-26T01:36:43.939Z,1004.6
2018-04-26T01:37:24.355Z,1004.6
2018-04-26T01:38:04.791Z,1004.58
2018-04-26T01:38:45.197Z,1004.59
2018-04-26T01:40:42.849Z,1004.62
2018-04-26T01:41:25.199Z,1004.61
2018-04-26T01:42:05.650Z,1004.54
2018-04-26T01:42:46.049Z,1004.65
2018-04-26T01:45:53.063Z,1004.53
2018-04-26T01:46:32.344Z,1004.54
2018-04-26T01:47:12.799Z,1004.63
2018-04-26T01:47:53.267Z,1004.6
2018-04-26T01:48:33.713Z,1004.67
2018-04-26T01:49:14.064Z,1004.69
2018-04-26T01:49:54.462Z,1004.68
2018-04-26T01:50:35.479Z,1004.63
2018-04-26T01:51:15.844Z,1004.7
2018-04-26T01:51:56.683Z,1004.59
2018-04-26T01:52:38.041Z,1004.64
2018-04-26T01:53:18.553Z,1004.63
2018-04-26T01:54:00.424Z,1004.65
2018-04-26T01:54:40.787Z,1004.66
2018-04-26T01:55:21.397Z,1004.7
2018-04-26T01:56:01.805Z,1004.68
2018-04-26T01:56:42.216Z,1004.69
2018-04-26T01:57:22.561Z,1004.67
2018-04-26T01:58:03.640Z,1004.64
2018-04-26T01:58:43.656Z,1004.62
2018-04-26T01:59:24.043Z,1004.59
2018-04-26T02:00:04.627Z,1004.73
2018-04-26T02:00:45.110Z,1004.65
2018-04-26T02:01:25.667Z,1004.63
2018-04-26T02:02:06.077Z,1004.73
2018-04-26T02:02:46.687Z,1004.65
2018-04-26T02:03:27.895Z,1004.64
2018-04-26T02:04:09.659Z,1004.63
2018-04-26T02:04:50.077Z,1004.66
2018-04-26T02:05:30.606Z,1004.69
2018-04-26T02:06:11.028Z,1004.64
2018-04-26T02:06:51.681Z,1004.67
2018-04-26T02:07:34.899Z,1004.67
2018-04-26T02:08:15.157Z,1004.68
2018-04-26T02:08:56.741Z,1004.59
2018-04-26T02:11:16.498Z,1004.63
2018-04-26T02:11:57.094Z,1004.7
2018-04-26T02:12:37.411Z,1004.7
2018-04-26T02:13:17.823Z,1004.72
2018-04-26T02:13:58.220Z,1004.7
2018-04-26T02:14:38.821Z,1004.73
2018-04-26T02:15:19.119Z,1004.72
2018-04-26T02:15:59.466Z,1004.71
2018-04-26T02:16:39.912Z,1004.75
2018-04-26T02:17:20.276Z,1004.73
2018-04-26T02:18:00.712Z,1004.72
2018-04-26T02:18:41.122Z,1004.69
2018-04-26T02:19:21.498Z,1004.69
2018-04-26T02:20:01.957Z,1004.76
2018-04-26T02:20:42.322Z,1004.71
2018-04-26T02:21:22.808Z,1004.7
2018-04-26T02:22:03.204Z,1004.75
2018-04-26T02:22:43.625Z,1004.7
2018-04-26T02:23:24.102Z,1004.68
2018-04-26T02:24:04.547Z,1004.7
2018-04-26T02:30:38.363Z,1004.7
2018-04-26T02:31:18.386Z,1004.75
2018-04-26T02:31:58.884Z,1004.74
2018-04-26T02:32:39.431Z,1004.75
2018-04-26T02:33:19.924Z,1004.69
2018-04-26T02:34:00.294Z,1004.76
2018-04-26T02:34:40.718Z,1004.73
2018-04-26T02:35:21.205Z,1004.72
2018-04-26T02:36:01.596Z,1004.75
2018-04-26T02:36:42.018Z,1004.74
2018-04-26T02:37:22.396Z,1004.75
2018-04-26T02:38:02.830Z,1004.71
2018-04-26T02:38:43.263Z,1004.7
2018-04-26T02:39:23.711Z,1004.7
2018-04-26T02:40:04.034Z,1004.72
2018-04-26T02:40:44.441Z,1004.76
2018-04-26T02:41:24.829Z,1004.7
2018-04-26T02:42:05.265Z,1004.74
2018-04-26T02:42:45.705Z,1004.64
2018-04-26T02:43:26.122Z,1004.7
2018-04-26T02:44:06.581Z,1004.68
2018-04-26T02:44:46.976Z,1004.77
2018-04-26T02:45:27.361Z,1004.67
2018-04-26T02:46:07.785Z,1004.7
2018-04-26T02:46:48.256Z,1004.7
2018-04-26T02:47:28.715Z,1004.76
2018-04-26T02:48:09.097Z,1004.73
2018-04-26T02:48:49.655Z,1004.72
2018-04-26T02:49:29.956Z,1004.66
2018-04-26T02:50:10.368Z,1004.68
2018-04-26T02:50:50.914Z,1004.71
2018-04-26T02:51:31.385Z,1004.66
2018-04-26T02:52:11.759Z,1004.62
2018-04-26T02:52:52.142Z,1004.64
2018-04-26T02:53:32.622Z,1004.6
2018-04-26T02:54:13.058Z,1004.71
2018-04-26T02:54:53.694Z,1004.64
2018-04-26T02:55:34.318Z,1004.65
2018-04-26T02:56:14.640Z,1004.74
2018-04-26T02:56:55.037Z,1004.73
2018-04-26T02:57:35.494Z,1004.7
2018-04-26T02:58:15.951Z,1004.75
2018-04-26T02:58:56.316Z,1004.7
2018-04-26T02:59:36.729Z,1004.76
2018-04-26T03:00:17.147Z,1004.84
2018-04-26T03:00:57.559Z,1004.75
2018-04-26T03:01:37.977Z,1004.75
2018-04-26T03:02:18.531Z,1004.79
2018-04-26T03:02:58.949Z,1004.78
2018-04-26T03:03:39.489Z,1004.84
2018-04-26T03:04:19.893Z,1004.75
2018-04-26T03:05:00.316Z,1004.81
2018-04-26T03:05:40.742Z,1004.86
2018-04-26T03:06:21.271Z,1004.84
2018-04-26T03:07:01.608Z,1004.84
2018-04-26T03:07:42.034Z,1004.82
2018-04-26T03:08:22.514Z,1004.8
2018-04-26T03:09:02.877Z,1004.76
2018-04-26T03:11:21.604Z,1004.82
2018-04-26T03:12:05.719Z,1004.8
2018-04-26T03:12:46.886Z,1004.72
2018-04-26T03:13:27.622Z,1004.81
2018-04-26T03:14:08.331Z,1004.81
2018-04-26T03:14:48.716Z,1004.76
2018-04-26T03:15:29.338Z,1004.77
2018-04-26T03:16:09.694Z,1004.71
2018-04-26T03:16:50.322Z,1004.78
2018-04-26T03:17:30.895Z,1004.72
2018-04-26T03:18:11.249Z,1004.8
2018-04-26T03:18:52.328Z,1004.61
2018-04-26T03:19:33.079Z,1004.81
2018-04-26T03:20:13.624Z,1004.82
2018-04-26T03:20:54.442Z,1004.88
2018-04-26T03:21:34.832Z,1004.77
2018-04-26T03:22:15.379Z,1004.75
2018-04-26T03:22:55.919Z,1004.79
2018-04-26T03:23:36.656Z,1004.74
2018-04-26T03:24:17.026Z,1004.75
2018-04-26T03:24:57.597Z,1004.74
2018-04-26T03:25:38.572Z,1004.72
2018-04-26T03:26:19.956Z,1004.76
2018-04-26T03:27:00.403Z,1004.76
2018-04-26T03:27:40.805Z,1004.76
2018-04-26T03:28:21.945Z,1004.75
2018-04-26T03:29:03.009Z,1004.77
2018-04-26T03:29:43.765Z,1004.78
2018-04-26T03:30:25.630Z,1004.84
2018-04-26T03:31:07.432Z,1004.78
2018-04-26T03:31:47.811Z,1004.83
2018-04-26T03:32:28.225Z,1004.84
2018-04-26T03:33:09.391Z,1004.82
2018-04-26T03:33:50.240Z,1004.88
2018-04-26T03:34:32.947Z,1004.89
2018-04-26T03:35:13.722Z,1004.85
2018-04-26T03:35:54.190Z,1004.88
2018-04-26T03:36:34.655Z,1004.84
2018-04-26T03:37:15.547Z,1004.85
2018-04-26T03:37:56.385Z,1004.89
2018-04-26T03:38:36.710Z,1004.8
2018-04-26T03:39:18.659Z,1004.81
2018-04-26T03:39:58.695Z,1004.84
2018-04-26T03:40:39.144Z,1004.91
2018-04-26T03:41:20.540Z,1004.89
2018-04-26T03:42:01.164Z,1004.86
2018-04-26T03:42:41.991Z,1004.87
2018-04-26T03:43:22.385Z,1004.9
2018-04-26T03:44:03.066Z,1004.9
2018-04-26T03:44:43.640Z,1004.91
2018-04-26T03:45:24.053Z,1004.9
2018-04-26T03:46:04.738Z,1004.83
2018-04-26T03:46:46.673Z,1004.88
2018-04-26T03:47:27.299Z,1004.89
2018-04-26T03:48:07.913Z,1004.86
2018-04-26T03:48:48.936Z,1004.89
2018-04-26T03:49:29.891Z,1004.85
2018-04-26T03:50:10.484Z,1004.94
2018-04-26T03:50:52.725Z,1004.98
2018-04-26T03:51:33.232Z,1004.93
2018-04-26T03:52:14.090Z,1004.87
2018-04-26T03:52:54.091Z,1004.86
2018-04-26T03:53:36.618Z,1004.81
2018-04-26T03:54:16.366Z,1004.91
2018-04-26T03:54:57.281Z,1004.88
2018-04-26T03:55:37.767Z,1004.89
2018-04-26T03:56:18.489Z,1004.95
2018-04-26T03:56:59.051Z,1004.93
2018-04-26T03:57:40.818Z,1004.89
2018-04-26T03:58:21.088Z,1004.95
2018-04-26T03:59:02.071Z,1004.98
2018-04-26T03:59:42.709Z,1005
2018-04-26T04:00:23.069Z,1004.9
2018-04-26T04:01:04.245Z,1004.96
2018-04-26T04:01:46.065Z,1005.04
2018-04-26T04:43:19.395Z,1005.17
2018-04-26T04:43:59.550Z,1005.2
2018-04-26T04:44:39.969Z,1005.18
2018-04-26T04:45:20.338Z,1005.2
2018-04-26T04:46:00.751Z,1005.21
2018-04-26T04:46:41.231Z,1005.23
2018-04-26T04:47:21.539Z,1005.26
2018-04-26T04:48:01.933Z,1005.28
2018-04-26T04:48:42.361Z,1005.33
2018-04-26T04:50:59.940Z,1005.3
2018-04-26T04:51:41.132Z,1005.34
2018-04-26T04:52:21.563Z,1005.32
2018-04-26T04:53:01.981Z,1005.38
2018-04-26T04:53:42.407Z,1005.25
2018-04-26T04:54:22.892Z,1005.33
2018-04-26T04:55:03.312Z,1005.44
2018-04-26T04:55:43.753Z,1005.37
2018-04-26T04:56:24.118Z,1005.38
2018-04-26T04:57:04.640Z,1005.41
2018-04-26T04:57:45.057Z,1005.44
2018-04-26T04:58:25.583Z,1005.45
2018-04-26T04:59:06.100Z,1005.42
2018-04-26T04:59:46.760Z,1005.44
2018-04-26T05:00:27.310Z,1005.47
2018-04-26T05:01:07.707Z,1005.55
2018-04-26T05:01:48.097Z,1005.5
2018-04-26T05:02:28.459Z,1005.56
2018-04-26T05:03:08.923Z,1005.51
2018-04-26T05:03:49.325Z,1005.5
2018-04-26T05:04:29.808Z,1005.53
2018-04-26T05:05:10.246Z,1005.53
2018-04-26T05:05:50.642Z,1005.48
2018-04-26T05:06:31.098Z,1005.52
2018-04-26T05:07:11.505Z,1005.58
2018-04-26T05:07:51.923Z,1005.58
2018-04-26T05:08:32.370Z,1005.56
2018-04-26T05:09:12.863Z,1005.59
2018-04-26T05:09:53.302Z,1005.6
2018-04-26T05:10:33.834Z,1005.61
2018-04-26T05:11:14.182Z,1005.59
2018-04-26T05:11:54.799Z,1005.59
2018-04-26T05:12:34.995Z,1005.71
2018-04-26T05:13:15.410Z,1005.67
2018-04-26T05:13:55.855Z,1005.7
2018-04-26T05:14:36.278Z,1005.71
2018-04-26T05:16:34.238Z,1005.75
2018-04-26T05:17:14.617Z,1005.79
2018-04-26T05:17:55.052Z,1005.77
2018-04-26T05:18:35.470Z,1005.78
2018-04-26T05:19:30.501Z,1005.88
2018-04-26T05:24:29.678Z,1005.69
2018-04-26T05:25:10.044Z,1005.74
2018-04-26T05:25:50.419Z,1005.82
2018-04-26T05:26:30.853Z,1005.87
2018-04-26T05:27:11.207Z,1005.89
2018-04-26T05:27:51.591Z,1005.91
2018-04-26T05:32:06.953Z,1005.97
2018-04-26T05:33:05.182Z,1006.05
2018-04-26T05:33:51.045Z,1006.01
2018-04-26T05:36:12.146Z,1006
2018-04-26T05:36:52.950Z,1005.95
2018-04-26T05:37:33.464Z,1006.01
2018-04-26T05:39:54.464Z,1005.78
2018-04-26T05:40:55.367Z,1005.93
2018-04-26T05:41:45.417Z,1005.93
2018-04-26T05:44:04.707Z,1006.08
2018-04-26T05:44:44.858Z,1006.14
2018-04-26T05:47:11.053Z,1006.09
2018-04-26T05:53:15.992Z,1006.07
2018-04-26T05:53:58.423Z,1006.07
2018-04-26T05:54:36.960Z,1006.16
2018-04-26T05:55:17.592Z,1006.18
2018-04-26T05:55:58.113Z,1006.2
2018-04-26T05:56:38.436Z,1006.14
2018-04-26T05:57:19.564Z,1006.19
2018-04-26T05:58:01.022Z,1006.16
2018-04-26T05:58:41.859Z,1006.19
2018-04-26T05:59:22.894Z,1006.1
2018-04-26T06:00:05.757Z,1006.08
2018-04-26T06:00:47.744Z,1006.13
2018-04-26T06:01:28.170Z,1006.17
2018-04-26T06:02:08.998Z,1006.19
2018-04-26T06:02:50.629Z,1006.17
2018-04-26T06:03:31.712Z,1006.09
2018-04-26T06:04:11.817Z,1006.22
2018-04-26T06:04:53.518Z,1006.19
2018-04-26T06:05:34.812Z,1006.25
2018-04-26T06:06:16.001Z,1006.29
2018-04-26T06:06:56.704Z,1006.27
2018-04-26T06:07:37.402Z,1006.31
2018-04-26T06:08:18.712Z,1006.12
2018-04-26T06:08:59.304Z,1006.13
2018-04-26T06:09:39.596Z,1006.29
2018-04-26T06:10:23.017Z,1006.3
2018-04-26T06:11:06.611Z,1006.28
2018-04-26T06:11:46.582Z,1006.34
2018-04-26T06:12:27.653Z,1006.23
2018-04-26T06:14:27.047Z,1006.31
2018-04-26T06:15:08.404Z,1006.34
2018-04-26T06:15:49.720Z,1006.35
2018-04-26T06:16:32.195Z,1006.33
2018-04-26T06:17:15.378Z,1006.39
2018-04-26T06:17:56.090Z,1006.32
2018-04-26T06:18:43.546Z,1006.41
2018-04-26T06:19:45.229Z,1006.44
2018-04-26T06:24:56.863Z,1006.49
2018-04-26T06:25:37.425Z,1006.46
2018-04-26T06:26:18.860Z,1006.48
2018-04-26T06:27:00.439Z,1006.48
2018-04-26T06:27:41.376Z,1006.51
2018-04-26T06:28:23.844Z,1006.51
2018-04-26T06:29:04.673Z,1006.48
2018-04-26T06:29:45.907Z,1006.56
2018-04-26T06:30:26.503Z,1006.49
2018-04-26T06:31:07.672Z,1006.46
2018-04-26T06:31:48.670Z,1006.53
2018-04-26T06:32:29.774Z,1006.55
2018-04-26T06:33:09.835Z,1006.55
2018-04-26T06:33:50.630Z,1006.6
2018-04-26T06:34:31.706Z,1006.6
2018-04-26T06:35:12.434Z,1006.57
2018-04-26T06:35:54.376Z,1006.58
2018-04-26T06:36:35.719Z,1006.59
2018-04-26T06:37:17.196Z,1006.61
2018-04-26T06:37:59.001Z,1006.6
2018-04-26T06:38:42.067Z,1006.61
2018-04-26T06:39:23.312Z,1006.63
2018-04-26T06:40:03.878Z,1006.66
2018-04-26T06:40:44.414Z,1006.68
2018-04-26T06:41:25.241Z,1006.65
2018-04-26T06:42:05.666Z,1006.69
2018-04-26T06:42:46.142Z,1006.69
2018-04-26T06:43:26.865Z,1006.69
2018-04-26T06:44:07.312Z,1006.72
2018-04-26T06:44:47.904Z,1006.73
2018-04-26T06:45:29.488Z,1006.7
2018-04-26T06:46:09.133Z,1006.74
2018-04-26T06:46:50.362Z,1006.72
2018-04-26T06:47:31.512Z,1006.71
2018-04-26T06:48:12.975Z,1006.62
2018-04-26T06:48:54.552Z,1006.67
2018-04-26T06:49:36.278Z,1006.68
2018-04-26T06:50:17.936Z,1006.7
2018-04-26T06:50:58.970Z,1006.7
2018-04-26T06:51:39.082Z,1006.72
2018-04-26T06:52:20.959Z,1006.69
2018-04-26T06:53:02.032Z,1006.67
2018-04-26T06:53:42.738Z,1006.75
2018-04-26T06:54:24.476Z,1006.67
2018-04-26T06:55:05.981Z,1006.77
2018-04-26T06:55:45.966Z,1006.72
2018-04-26T06:56:26.941Z,1006.76
2018-04-26T06:57:07.346Z,1006.68
2018-04-26T06:57:50.099Z,1006.67
2018-04-26T06:58:38.113Z,1006.74
2018-04-26T06:59:19.445Z,1006.77
2018-04-26T07:00:01.114Z,1006.81
2018-04-26T07:00:41.607Z,1006.7
2018-04-26T07:01:23.767Z,1006.71
2018-04-26T07:02:06.140Z,1006.8
2018-04-26T07:02:48.525Z,1006.82
2018-04-26T07:03:28.756Z,1006.81
2018-04-26T07:04:10.347Z,1006.84
2018-04-26T07:04:50.180Z,1006.72
2018-04-26T07:05:30.949Z,1006.71
2018-04-26T07:06:11.992Z,1006.91
2018-04-26T07:06:53.533Z,1006.85
2018-04-26T07:07:33.588Z,1006.81
2018-04-26T07:08:14.391Z,1006.87
2018-04-26T07:08:55.722Z,1006.85
2018-04-26T07:09:36.710Z,1006.75
2018-04-26T07:10:18.254Z,1006.87
2018-04-26T07:10:59.245Z,1006.84
2018-04-26T07:11:41.348Z,1006.95
2018-04-26T07:12:22.743Z,1006.9
2018-04-26T07:13:06.038Z,1006.79
2018-04-26T07:13:48.368Z,1006.96
2018-04-26T07:14:29.955Z,1007.04
2018-04-26T07:15:13.315Z,1006.96
2018-04-26T07:15:55.575Z,1007.11
2018-04-26T07:16:36.772Z,1006.97
2018-04-26T07:17:19.261Z,1006.99
2018-04-26T07:18:00.794Z,1007.03
2018-04-26T07:18:42.309Z,1007.02
2018-04-26T07:19:25.391Z,1007.06
2018-04-26T07:20:06.763Z,1007.04
2018-04-26T07:20:47.202Z,1006.96
2018-04-26T07:21:27.720Z,1007.05
2018-04-26T07:22:09.133Z,1007.07
2018-04-26T07:22:58.217Z,1007.05
2018-04-26T07:23:40.548Z,1007.07
2018-04-26T07:24:20.327Z,1007.08
2018-04-26T07:25:02.415Z,1007.04
2018-04-26T07:25:44.830Z,1007.08
2018-04-26T07:26:26.549Z,1007.13
2018-04-26T07:27:07.801Z,1007.06
2018-04-26T07:27:48.392Z,1007.09
2018-04-26T07:28:31.730Z,1007.07
2018-04-26T07:29:13.389Z,1006.97
2018-04-26T07:29:54.769Z,1006.98
2018-04-26T07:30:35.353Z,1007.08
2018-04-26T07:31:17.116Z,1007.05
2018-04-26T07:31:58.094Z,1007.06
2018-04-26T07:32:41.141Z,1007.08
2018-04-26T07:33:26.305Z,1007.08
2018-04-26T07:34:06.627Z,1007.12
2018-04-26T07:34:48.805Z,1007.06
2018-04-26T07:35:30.408Z,1007.14
2018-04-26T07:36:10.059Z,1007.1
2018-04-26T07:36:52.443Z,1007.04
2018-04-26T07:37:33.682Z,1007.11
2018-04-26T07:38:15.174Z,1007.02
2018-04-26T07:38:56.694Z,1007.09
2018-04-26T07:39:37.316Z,1007.21
2018-04-26T07:40:19.288Z,1007.17
2018-04-26T07:40:59.794Z,1007.05
2018-04-26T07:42:26.281Z,1007.18
2018-04-26T07:43:06.763Z,1007.15
2018-04-26T07:43:48.366Z,1007.14
2018-04-26T07:44:28.722Z,1007.16
2018-04-26T07:45:09.886Z,1007.21
2018-04-26T07:45:50.284Z,1007.22
2018-04-26T07:46:31.137Z,1007.07
2018-04-26T07:47:12.319Z,1007.19
2018-04-26T07:47:53.813Z,1007.18
2018-04-26T07:48:35.940Z,1007.16
2018-04-26T07:49:19.449Z,1007.14
2018-04-26T07:50:00.651Z,1007.22
2018-04-26T07:50:42.185Z,1007.22
2018-04-26T07:51:23.518Z,1007.26
2018-04-26T07:52:04.099Z,1007.22
2018-04-26T07:52:45.156Z,1007.14
2018-04-26T07:53:25.728Z,1007.22
2018-04-26T07:54:08.294Z,1007.27
2018-04-26T07:54:49.364Z,1007.24
2018-04-26T07:55:31.137Z,1007.27
2018-04-26T07:56:12.114Z,1007.16
2018-04-26T07:56:53.671Z,1007.23
2018-04-26T07:57:36.304Z,1007.19
2018-04-26T07:58:17.429Z,1007.13
2018-04-26T07:58:58.981Z,1007.24
2018-04-26T07:59:39.903Z,1007.28
2018-04-26T08:00:20.610Z,1007.32
2018-04-26T08:01:02.277Z,1007.3
2018-04-26T08:01:44.254Z,1007.34
2018-04-26T08:02:25.754Z,1007.27
2018-04-26T08:03:07.042Z,1007.21
2018-04-26T08:03:47.710Z,1007.32
2018-04-26T08:04:28.814Z,1007.24
2018-04-26T08:05:09.371Z,1007.26
2018-04-26T08:05:49.719Z,1007.28
2018-04-26T08:06:32.645Z,1007.28
2018-04-26T08:07:13.682Z,1007.29
2018-04-26T08:07:53.889Z,1007.27
2018-04-26T08:08:38.331Z,1007.31
2018-04-26T08:09:19.303Z,1007.2
2018-04-26T08:10:04.570Z,1007.3
2018-04-26T08:10:45.462Z,1007.34
2018-04-26T08:11:26.796Z,1007.3
2018-04-26T08:12:08.539Z,1007.31
2018-04-26T08:12:49.379Z,1007.36
2018-04-26T08:13:30.808Z,1007.36
2018-04-26T08:14:16.732Z,1007.37
2018-04-26T08:15:16.729Z,1007.4
2018-04-26T08:15:57.334Z,1007.42
2018-04-26T08:19:45.892Z,1007.48
2018-04-26T08:27:19.114Z,1007.51
2018-04-26T08:30:03.138Z,1007.46
2018-04-26T08:30:50.728Z,1007.61
2018-04-26T08:31:46.372Z,1007.62
2018-04-26T08:35:01.626Z,1007.51
2018-04-26T08:37:33.583Z,1007.53
2018-04-26T08:41:39.412Z,1007.58
2018-04-26T08:42:20.502Z,1007.65
2018-04-26T08:57:31.959Z,1007.78
2018-04-26T08:58:15.249Z,1007.8
2018-04-26T08:59:05.009Z,1007.8
2018-04-26T09:03:09.147Z,1007.8
2018-04-26T09:03:52.050Z,1007.72
2018-04-26T09:07:45.232Z,1007.73
2018-04-26T09:12:02.102Z,1007.78
2018-04-26T09:19:27.709Z,1007.78
2018-04-26T09:20:07.694Z,1007.73
2018-04-26T09:20:48.673Z,1007.71
2018-04-26T09:21:28.889Z,1007.81
2018-04-26T09:22:09.544Z,1007.74
2018-04-26T09:22:50.012Z,1007.76
2018-04-26T09:23:30.582Z,1007.74
2018-04-26T09:24:11.173Z,1007.63
2018-04-26T09:24:51.778Z,1007.73
2018-04-26T09:25:32.370Z,1007.78
2018-04-26T09:26:13.174Z,1007.7
2018-04-26T09:26:53.569Z,1007.74
2018-04-26T09:27:34.017Z,1007.8
2018-04-26T09:28:15.073Z,1007.87
2018-04-26T09:28:55.625Z,1007.83
2018-04-26T09:29:36.415Z,1007.89
2018-04-26T09:30:16.891Z,1007.84
2018-04-26T09:30:57.295Z,1007.85
2018-04-26T09:31:37.925Z,1007.83
2018-04-26T09:32:18.471Z,1007.89
2018-04-26T09:33:00.239Z,1007.75
2018-04-26T09:33:40.259Z,1007.86
2018-04-26T09:34:20.653Z,1007.86
2018-04-26T09:37:41.056Z,1007.77
2018-04-26T09:38:20.959Z,1007.79
2018-04-26T09:39:01.825Z,1007.8
2018-04-26T09:39:43.360Z,1007.86
2018-04-26T09:40:23.244Z,1007.83
2018-04-26T09:41:04.090Z,1007.88
2018-04-26T09:41:44.355Z,1007.87
2018-04-26T09:42:25.067Z,1007.9
2018-04-26T09:43:05.553Z,1007.94
2018-04-26T09:43:46.224Z,1007.88
2018-04-26T09:44:27.510Z,1007.85
2018-04-26T09:45:07.677Z,1007.88
2018-04-26T09:45:48.353Z,1007.86
2018-04-26T09:46:29.850Z,1007.93
2018-04-26T09:47:11.677Z,1007.93
2018-04-26T09:47:52.271Z,1007.91
2018-04-26T09:48:32.938Z,1007.89
2018-04-26T09:49:13.605Z,1007.83
2018-04-26T09:49:54.054Z,1007.93
2018-04-26T09:50:34.584Z,1008.02
2018-04-26T09:51:15.109Z,1007.96
2018-04-26T09:51:55.651Z,1007.95
2018-04-26T09:52:36.071Z,1007.91
2018-04-26T09:53:16.625Z,1007.79
2018-04-26T09:53:57.170Z,1007.83
2018-04-26T09:54:37.704Z,1007.9
2018-04-26T09:55:18.469Z,1007.97
2018-04-26T09:55:58.849Z,1008.01
2018-04-26T09:56:39.201Z,1008
2018-04-26T09:57:19.785Z,1007.98
2018-04-26T09:58:00.913Z,1007.9
2018-04-26T09:58:40.874Z,1007.98
2018-04-26T09:59:21.773Z,1008
2018-04-26T10:00:02.132Z,1007.94
2018-04-26T10:00:42.664Z,1007.96
2018-04-26T10:01:23.067Z,1008.02
2018-04-26T10:02:03.568Z,1008.01
2018-04-26T10:02:44.575Z,1008
2018-04-26T10:03:25.148Z,1007.98
2018-04-26T10:44:26.649Z,1008.12
2018-04-26T10:45:07.116Z,1008.21
2018-04-26T10:45:48.525Z,1008.12
2018-04-26T10:46:29.500Z,1008.07
2018-04-26T10:47:10.060Z,1008.08
2018-04-26T10:47:50.685Z,1008.07
2018-04-26T10:48:31.118Z,1008.13
2018-04-26T10:49:12.241Z,1008.11
2018-04-26T10:49:52.925Z,1008.09
2018-04-26T10:50:33.476Z,1008.04
2018-04-26T10:51:14.983Z,1008.02
2018-04-26T10:51:55.016Z,1008.17
2018-04-26T10:52:35.768Z,1008.1
2018-04-26T10:53:16.548Z,1008.04
2018-04-26T10:53:57.485Z,1008.08
2018-04-26T10:54:37.610Z,1008.06
2018-04-26T10:55:18.321Z,1008.06
2018-04-26T10:55:59.000Z,1008.03
2018-04-26T10:56:39.597Z,1008.04
2018-04-26T10:57:20.182Z,1008.11
2018-04-26T10:58:01.260Z,1008.1
2018-04-26T10:58:41.825Z,1008.02
2018-04-26T10:59:22.233Z,1008.05
2018-04-26T11:00:02.729Z,1008.05
2018-04-26T11:00:43.120Z,1008
2018-04-26T11:01:23.504Z,1008.04
2018-04-26T11:02:03.980Z,1008.02
2018-04-26T11:02:44.475Z,1008.06
2018-04-26T11:03:24.882Z,1008.11
2018-04-26T11:04:05.392Z,1008.07
2018-04-26T11:04:46.269Z,1008.06
2018-04-26T11:05:27.080Z,1008.02
2018-04-26T11:06:07.641Z,1008.09
2018-04-26T11:06:48.485Z,1008.04
2018-04-26T11:07:29.798Z,1008.04
2018-04-26T11:08:11.468Z,1008.06
2018-04-26T11:08:51.127Z,1008.09
2018-04-26T11:09:31.711Z,1008.06
2018-04-26T11:10:12.157Z,1008.11
2018-04-26T11:10:52.715Z,1008
2018-04-26T11:11:33.272Z,1008.06
2018-04-26T11:12:13.824Z,1008.01
2018-04-26T11:12:54.506Z,1007.95
2018-04-26T11:13:35.049Z,1008.04
2018-04-26T11:14:15.551Z,1008.07
2018-04-26T11:14:56.148Z,1008.08
2018-04-26T11:15:36.537Z,1008.06
2018-04-26T11:16:17.028Z,1008.06
2018-04-26T11:16:57.695Z,1007.95
2018-04-26T11:17:38.188Z,1008.01
2018-04-26T11:18:18.866Z,1008.01
2018-04-26T11:18:59.356Z,1007.96
2018-04-26T11:19:39.954Z,1008.05
2018-04-26T11:20:21.519Z,1008
2018-04-26T11:21:02.098Z,1008.01